Weather at Faleolo International Airport

Public forecast

Using degrees Celsius for public forecast. Weather courtesy of forecast.io.

Current aviation weather report (METAR) for Faleolo International Airport

Retrieved 2020/10/21 01:00 UTC (1 minute ago):

NSFA 210100Z 17007KT 130V200 9000 -RA FEW018CB SCT022 BKN038 27/26 Q1009 RMK CB TO S

Aviation forecast (TAF) for Faleolo International Airport

Retrieved 2020-10-21 00:00 UTC (1 hour ago):

TAF NSFA 202316Z 2100/2124 12007KT 9999 SCT018 SCT040 OVC100 PROB30 TEMPO 2100/2106 5000 TSRA BKN015 FEW018CB PROB40 TEMPO 2106/2124 5000 TSRA BKN015 FEW018CB